Flight Briefing for CMB813

Departure Arrival
Joint Base McGuire Dix Lakehurst (KWRI)
Click to view FAA NOTAMS
RAF Mildenhall (EGUN)
Click to view FAA NOTAMS
Departure Time Arrival Time
N/A N/A
Aircraft Distance
B767-300BDSF 3069nm
Departure METAR Arrival METAR
KWRI 190656Z AUTO 00000KT 10SM SCT085 M03/M06 A3034 RMK AO2 SLP275 T10281056 EGUN 190711Z 24005KT 6000 BR SCT016 OVC036 07/07 A3027 RMK AO2A SLP254 WND DATA ESTMD $
Suggested Route





View recent IFR Routes data
Notes
USTRANSCOM CONTRACT FLIGHT

Charts and Procedures

Charts for KWRI
No chart available
Charts for EGUN
No chart available

Windy.com Weather Map